createdAt,value
2019-05-05T00:01:27.224Z,67.60
2019-05-05T00:04:16.175Z,67.80
2019-05-05T00:06:45.404Z,67.90
2019-05-05T00:09:14.779Z,68.00
2019-05-05T00:12:05.316Z,68.10
2019-05-05T00:14:45.003Z,68.10
2019-05-05T00:17:18.744Z,67.90
2019-05-05T00:19:48.053Z,67.90
2019-05-05T00:22:17.215Z,68.00
2019-05-05T00:24:46.489Z,68.10
2019-05-05T00:27:15.683Z,68.40
2019-05-05T00:29:45.445Z,68.50
2019-05-05T00:32:15.256Z,68.60
2019-05-05T00:34:44.695Z,68.60
2019-05-05T00:37:15.234Z,68.70
2019-05-05T00:39:45.164Z,68.80
2019-05-05T00:42:15.550Z,68.60
2019-05-05T00:44:44.881Z,68.30
2019-05-05T00:47:21.319Z,68.70
2019-05-05T00:49:52.138Z,68.90
2019-05-05T00:52:21.360Z,69.10
2019-05-05T00:54:50.549Z,69.40
2019-05-05T00:57:19.767Z,69.50
2019-05-05T00:59:49.028Z,69.60
2019-05-05T01:02:19.827Z,69.70
2019-05-05T01:05:05.287Z,69.80
2019-05-05T01:07:35.138Z,69.80
2019-05-05T01:10:06.605Z,69.60
2019-05-05T01:12:35.954Z,69.60
2019-05-05T01:15:05.623Z,69.70
2019-05-05T01:17:34.866Z,69.70
2019-05-05T01:20:07.050Z,69.80
2019-05-05T01:22:36.475Z,69.90
2019-05-05T01:25:07.014Z,70.20
2019-05-05T01:27:36.257Z,70.40
2019-05-05T01:30:15.186Z,70.50
2019-05-05T01:33:05.478Z,70.70
2019-05-05T01:35:34.919Z,70.80
2019-05-05T01:38:14.954Z,70.70
2019-05-05T01:40:51.915Z,70.90
2019-05-05T01:43:21.099Z,70.70
2019-05-05T01:45:50.309Z,70.50
2019-05-05T01:48:19.554Z,70.50
2019-05-05T01:50:48.726Z,70.60
2019-05-05T01:53:17.956Z,70.90
2019-05-05T01:55:47.156Z,71.30
2019-05-05T01:58:16.858Z,71.90
2019-05-05T02:00:46.075Z,72.40
2019-05-05T02:03:15.255Z,72.70
2019-05-05T02:05:45.269Z,73.10
2019-05-05T02:08:15.296Z,73.10
2019-05-05T02:10:45.368Z,73.20
2019-05-05T02:13:16.106Z,73.20
2019-05-05T02:15:45.378Z,73.10
2019-05-05T02:18:14.961Z,73.10
2019-05-05T02:21:01.056Z,73.20
2019-05-05T02:23:30.169Z,73.30
2019-05-05T02:25:59.341Z,73.10
2019-05-05T02:28:30.203Z,73.10
2019-05-05T02:31:05.600Z,73.10
2019-05-05T02:33:35.452Z,73.20
2019-05-05T02:36:05.739Z,73.10
2019-05-05T02:38:35.662Z,72.80
2019-05-05T02:41:05.296Z,72.80
2019-05-05T02:43:35.004Z,73.00
2019-05-05T02:46:07.117Z,73.20
2019-05-05T02:48:36.687Z,73.40
2019-05-05T02:51:07.253Z,73.40
2019-05-05T02:53:40.772Z,73.40
2019-05-05T02:56:11.878Z,73.50
2019-05-05T02:58:41.111Z,73.50
2019-05-05T03:01:20.723Z,73.70
2019-05-05T03:03:50.021Z,74.00
2019-05-05T03:06:19.215Z,74.00
2019-05-05T03:08:48.585Z,74.00
2019-05-05T03:11:17.879Z,74.10
2019-05-05T03:13:47.061Z,74.20
2019-05-05T03:16:18.767Z,73.90
2019-05-05T03:18:48.044Z,74.00
2019-05-05T03:21:17.975Z,74.00
2019-05-05T03:23:47.182Z,74.00
2019-05-05T03:26:16.522Z,74.00
2019-05-05T03:28:50.341Z,74.10
2019-05-05T03:31:19.562Z,74.10
2019-05-05T03:33:48.777Z,74.20
2019-05-05T03:36:18.266Z,74.40
2019-05-05T03:38:47.528Z,74.50
2019-05-05T03:41:21.072Z,74.60
2019-05-05T03:44:06.748Z,74.80
2019-05-05T03:46:36.727Z,74.80
2019-05-05T03:49:06.386Z,74.80
2019-05-05T03:51:35.654Z,74.90
2019-05-05T03:54:04.904Z,75.00
2019-05-05T03:56:34.745Z,75.10
2019-05-05T03:59:04.927Z,75.20
2019-05-05T04:01:56.479Z,75.80
2019-05-05T04:04:27.343Z,75.00
2019-05-05T04:06:58.188Z,74.80
2019-05-05T04:09:28.270Z,75.00
2019-05-05T04:11:57.627Z,75.00
2019-05-05T04:14:26.847Z,75.20
2019-05-05T04:16:57.677Z,75.40
2019-05-05T04:19:28.482Z,75.40
2019-05-05T04:21:57.717Z,75.30
2019-05-05T04:24:26.964Z,75.30
2019-05-05T04:26:56.333Z,75.40
2019-05-05T04:29:25.551Z,76.20
2019-05-05T04:31:54.783Z,75.40
2019-05-05T04:34:24.174Z,75.40
2019-05-05T04:36:54.638Z,75.50
2019-05-05T04:39:23.736Z,75.50
2019-05-05T04:41:54.600Z,75.30
2019-05-05T04:44:23.833Z,75.00
2019-05-05T04:46:54.709Z,75.40
2019-05-05T04:49:28.105Z,75.50
2019-05-05T04:52:14.372Z,75.50
2019-05-05T04:54:45.374Z,75.70
2019-05-05T04:57:15.010Z,75.70
2019-05-05T04:59:44.539Z,76.00
2019-05-05T05:02:18.454Z,76.10
2019-05-05T05:04:53.558Z,76.00
2019-05-05T05:07:24.189Z,76.10
2019-05-05T05:09:53.994Z,76.20
2019-05-05T05:12:23.815Z,76.00
2019-05-05T05:14:54.658Z,75.80
2019-05-05T05:17:25.599Z,76.00
2019-05-05T05:19:54.787Z,76.00
2019-05-05T05:22:24.432Z,75.90
2019-05-05T05:24:54.224Z,75.80
2019-05-05T05:27:24.482Z,75.50
2019-05-05T05:29:54.357Z,75.30
2019-05-05T05:32:24.760Z,75.30
2019-05-05T05:34:54.403Z,75.40
2019-05-05T05:37:24.110Z,75.20
2019-05-05T05:39:58.067Z,75.20
2019-05-05T05:42:27.247Z,75.00
2019-05-05T05:45:14.561Z,74.90
2019-05-05T05:48:00.516Z,74.90
2019-05-05T05:50:44.336Z,75.10
2019-05-05T05:53:14.049Z,75.20
2019-05-05T05:55:44.783Z,75.00
2019-05-05T05:58:14.243Z,74.90
2019-05-05T06:00:44.416Z,74.80
2019-05-05T06:03:14.141Z,74.40
2019-05-05T06:05:43.748Z,74.00
2019-05-05T06:08:14.215Z,73.60
2019-05-05T06:10:44.260Z,73.20
2019-05-05T06:13:15.382Z,72.80
2019-05-05T06:15:44.838Z,72.50
2019-05-05T06:18:14.052Z,72.50
2019-05-05T06:20:44.550Z,72.40
2019-05-05T06:23:14.682Z,72.50
2019-05-05T06:25:44.844Z,72.60
2019-05-05T06:28:14.667Z,72.90
2019-05-05T06:30:44.450Z,72.90
2019-05-05T06:33:14.182Z,72.90
2019-05-05T06:35:44.275Z,72.80
2019-05-05T06:38:13.814Z,72.90
2019-05-05T06:41:00.670Z,72.80
2019-05-05T06:43:40.412Z,72.60
2019-05-05T06:46:11.298Z,72.40
2019-05-05T06:48:40.567Z,72.40
2019-05-05T06:51:09.763Z,72.50
2019-05-05T06:53:38.983Z,72.50
2019-05-05T06:56:08.184Z,72.40
2019-05-05T06:58:37.366Z,72.50
2019-05-05T07:01:06.607Z,72.60
2019-05-05T07:03:35.815Z,72.60
2019-05-05T07:06:04.995Z,72.60
2019-05-05T07:08:34.847Z,72.50
2019-05-05T07:11:04.301Z,72.30
2019-05-05T07:13:34.055Z,72.10
2019-05-05T07:16:04.829Z,71.70
2019-05-05T07:18:34.325Z,71.10
2019-05-05T07:21:03.911Z,71.00
2019-05-05T07:23:34.067Z,70.80
2019-05-05T07:26:04.277Z,70.60
2019-05-05T07:28:34.184Z,70.40
2019-05-05T07:31:04.436Z,70.40
2019-05-05T07:33:34.585Z,70.20
2019-05-05T07:36:21.755Z,70.00
2019-05-05T07:38:51.014Z,69.80
2019-05-05T07:41:20.332Z,69.30
2019-05-05T07:43:49.590Z,69.00
2019-05-05T07:46:18.796Z,68.70
2019-05-05T07:48:47.963Z,68.50
2019-05-05T07:51:17.276Z,68.20
2019-05-05T07:53:46.533Z,67.90
2019-05-05T07:56:15.750Z,67.50
2019-05-05T07:58:44.958Z,67.10
2019-05-05T08:01:14.320Z,66.30
2019-05-05T08:03:44.535Z,65.60
2019-05-05T08:06:14.547Z,65.20
2019-05-05T08:08:44.475Z,65.50
2019-05-05T08:11:39.349Z,65.40
2019-05-05T08:14:08.596Z,64.60
2019-05-05T08:16:57.257Z,64.00
2019-05-05T08:19:34.719Z,63.70
2019-05-05T08:22:04.180Z,62.90
2019-05-05T08:24:51.216Z,62.00
2019-05-05T08:27:22.059Z,62.40
2019-05-05T08:29:54.278Z,63.10
2019-05-05T08:32:25.274Z,66.90
2019-05-05T08:35:00.014Z,69.20
2019-05-05T08:37:25.446Z,70.80
2019-05-05T08:39:54.731Z,71.60
2019-05-05T08:42:24.718Z,71.30
2019-05-05T08:44:54.003Z,70.80
2019-05-05T08:47:24.596Z,70.00
2019-05-05T08:49:54.211Z,69.40
2019-05-05T08:52:23.896Z,69.30
2019-05-05T08:54:54.121Z,69.10
2019-05-05T08:57:23.681Z,69.10
2019-05-05T08:59:54.461Z,68.90
2019-05-05T09:02:24.060Z,68.20
2019-05-05T09:04:53.898Z,67.80
2019-05-05T09:07:24.315Z,67.80
2019-05-05T09:09:54.668Z,67.90
2019-05-05T09:12:24.077Z,68.10
2019-05-05T09:14:53.982Z,68.50
2019-05-05T09:17:24.364Z,68.80
2019-05-05T09:19:54.157Z,69.00
2019-05-05T09:22:24.572Z,69.30
2019-05-05T09:24:58.502Z,69.50
2019-05-05T09:27:41.389Z,69.50
2019-05-05T09:30:14.219Z,69.40
2019-05-05T09:32:43.846Z,69.30
2019-05-05T09:35:13.926Z,69.20
2019-05-05T09:37:44.333Z,69.00
2019-05-05T09:40:13.965Z,69.10
2019-05-05T09:42:44.335Z,68.90
2019-05-05T09:45:14.062Z,68.90
2019-05-05T09:47:44.996Z,69.00
2019-05-05T09:50:14.497Z,69.00
2019-05-05T09:52:44.408Z,68.10
2019-05-05T09:55:13.963Z,67.50
2019-05-05T09:57:43.915Z,67.60
2019-05-05T10:00:14.429Z,67.70
2019-05-05T10:02:44.287Z,68.00
2019-05-05T10:05:14.549Z,67.90
2019-05-05T10:07:44.160Z,67.30
2019-05-05T10:10:13.856Z,66.60
2019-05-05T10:12:44.610Z,66.00
2019-05-05T10:15:13.838Z,65.60
2019-05-05T10:17:44.032Z,65.80
2019-05-05T10:20:14.511Z,65.80
2019-05-05T10:22:43.819Z,65.60
2019-05-05T10:25:34.357Z,65.60
2019-05-05T10:28:04.345Z,65.20
2019-05-05T10:30:34.294Z,63.70
2019-05-05T10:33:03.857Z,62.20
2019-05-05T10:35:34.444Z,62.00
2019-05-05T10:38:03.127Z,62.00
2019-05-05T10:40:34.063Z,62.90
2019-05-05T10:43:04.411Z,62.80
2019-05-05T10:45:33.404Z,62.60
2019-05-05T10:48:04.067Z,63.10
2019-05-05T10:50:34.326Z,63.00
2019-05-05T10:53:04.672Z,62.70
2019-05-05T10:55:34.705Z,62.40
2019-05-05T10:58:04.437Z,62.60
2019-05-05T11:00:49.139Z,62.50
2019-05-05T11:03:18.407Z,61.80
2019-05-05T11:05:47.757Z,61.50
2019-05-05T11:08:17.053Z,61.00
2019-05-05T11:10:46.256Z,60.70
2019-05-05T11:13:15.535Z,60.40
2019-05-05T11:15:44.783Z,59.90
2019-05-05T11:18:14.982Z,59.60
2019-05-05T11:20:45.203Z,59.20
2019-05-05T11:23:15.108Z,59.10
2019-05-05T11:25:44.682Z,58.80
2019-05-05T11:28:14.222Z,59.00
2019-05-05T11:30:46.091Z,59.70
2019-05-05T11:33:34.857Z,61.30
2019-05-05T11:36:23.890Z,62.20
2019-05-05T11:38:53.662Z,62.50
2019-05-05T11:41:24.261Z,61.90
2019-05-05T11:43:53.433Z,61.80
2019-05-05T11:46:24.760Z,61.80
2019-05-05T11:48:54.347Z,61.40
2019-05-05T11:51:24.973Z,61.10
2019-05-05T11:53:54.132Z,60.60
2019-05-05T11:56:23.417Z,60.70
2019-05-05T11:58:54.487Z,61.10
2019-05-05T12:01:24.298Z,61.30
2019-05-05T12:03:53.733Z,61.50
2019-05-05T12:06:24.646Z,61.40
2019-05-05T12:08:53.925Z,61.30
2019-05-05T12:11:24.033Z,61.10
2019-05-05T12:13:54.657Z,61.00
2019-05-05T12:16:30.771Z,60.40
2019-05-05T12:19:01.883Z,59.30
2019-05-05T12:21:31.116Z,58.90
2019-05-05T12:24:03.814Z,57.70
2019-05-05T12:26:34.825Z,57.10
2019-05-05T12:29:05.924Z,57.20
2019-05-05T12:31:36.767Z,57.60
2019-05-05T12:34:06.017Z,57.50
2019-05-05T12:36:35.212Z,57.70
2019-05-05T12:39:07.191Z,57.70
2019-05-05T12:41:36.539Z,58.00
2019-05-05T12:44:07.377Z,58.80
2019-05-05T12:46:38.278Z,59.60
2019-05-05T12:49:09.169Z,60.30
2019-05-05T12:51:38.756Z,60.10
2019-05-05T12:54:07.913Z,59.90
2019-05-05T12:56:37.129Z,59.70
2019-05-05T12:59:08.001Z,59.30
2019-05-05T13:01:38.829Z,59.00
2019-05-05T13:04:08.012Z,58.90
2019-05-05T13:06:37.508Z,59.20
2019-05-05T13:09:07.638Z,58.20
2019-05-05T13:11:37.114Z,58.00
2019-05-05T13:14:06.376Z,57.90
2019-05-05T13:16:35.646Z,57.90
2019-05-05T13:19:06.853Z,57.80
2019-05-05T13:21:49.556Z,57.50
2019-05-05T13:24:20.388Z,57.40
2019-05-05T13:26:54.195Z,57.30
2019-05-05T13:29:24.581Z,57.30
2019-05-05T13:31:54.428Z,57.40
2019-05-05T13:34:23.965Z,57.30
2019-05-05T13:36:53.127Z,57.20
2019-05-05T13:39:24.562Z,56.60
2019-05-05T13:41:53.976Z,56.00
2019-05-05T13:44:24.947Z,55.70
2019-05-05T13:46:54.147Z,55.00
2019-05-05T13:49:36.735Z,54.20
2019-05-05T13:52:05.916Z,53.10
2019-05-05T13:54:35.157Z,52.20
2019-05-05T13:57:04.374Z,52.00
2019-05-05T13:59:34.066Z,51.90
2019-05-05T14:02:03.402Z,51.70
2019-05-05T14:04:34.384Z,51.40
2019-05-05T14:07:04.138Z,50.70
2019-05-05T14:09:33.422Z,50.60
2019-05-05T14:12:04.104Z,51.00
2019-05-05T14:14:33.651Z,50.80
2019-05-05T14:17:04.115Z,50.90
2019-05-05T14:19:34.066Z,50.80
2019-05-05T14:22:04.486Z,51.50
2019-05-05T14:24:38.649Z,51.70
2019-05-05T14:27:07.966Z,51.00
2019-05-05T14:29:38.896Z,50.40
2019-05-05T14:32:09.559Z,49.50
2019-05-05T14:34:49.176Z,49.00
2019-05-05T14:37:28.765Z,48.20
2019-05-05T14:39:58.200Z,47.30
2019-05-05T14:42:27.387Z,46.00
2019-05-05T14:44:56.656Z,45.50
2019-05-05T14:47:26.276Z,45.70
2019-05-05T14:49:55.454Z,45.50
2019-05-05T14:52:24.901Z,45.60
2019-05-05T14:54:54.481Z,44.80
2019-05-05T14:57:25.354Z,43.80
2019-05-05T14:59:54.597Z,43.00
2019-05-05T15:02:24.519Z,42.30
2019-05-05T15:04:55.526Z,42.20
2019-05-05T15:07:30.076Z,42.60
2019-05-05T15:10:04.269Z,43.30
2019-05-05T15:12:38.134Z,44.90
2019-05-05T15:15:07.768Z,46.10
2019-05-05T15:17:37.012Z,46.80
2019-05-05T15:20:07.761Z,47.20
2019-05-05T15:22:36.942Z,47.60
2019-05-05T15:25:07.084Z,47.90
2019-05-05T15:27:36.372Z,48.20
2019-05-05T15:30:07.696Z,48.50
2019-05-05T15:32:36.900Z,48.70
2019-05-05T15:35:07.440Z,49.00
2019-05-05T15:37:35.965Z,49.50
2019-05-05T15:40:05.805Z,49.70
2019-05-05T15:42:35.075Z,49.90
2019-05-05T15:45:05.064Z,50.30
2019-05-05T15:47:34.478Z,50.50
2019-05-05T15:50:06.400Z,50.60
2019-05-05T15:52:35.573Z,50.70
2019-05-05T15:55:07.046Z,51.50
2019-05-05T15:57:36.349Z,51.10
2019-05-05T16:00:08.838Z,51.30
2019-05-05T16:02:38.038Z,51.60
2019-05-05T16:05:09.077Z,51.70
2019-05-05T16:07:38.266Z,51.80
2019-05-05T16:10:07.936Z,52.10
2019-05-05T16:12:39.762Z,52.20
2019-05-05T16:15:28.397Z,52.40
2019-05-05T16:17:59.346Z,52.60
2019-05-05T16:20:33.255Z,52.70
2019-05-05T16:23:11.668Z,52.90
2019-05-05T16:25:41.793Z,52.80
2019-05-05T16:28:11.142Z,52.80
2019-05-05T16:30:40.386Z,52.90
2019-05-05T16:33:09.586Z,52.80
2019-05-05T16:35:38.810Z,52.50
2019-05-05T16:38:08.114Z,52.50
2019-05-05T16:40:37.359Z,52.80
2019-05-05T16:43:06.518Z,53.10
2019-05-05T16:45:35.735Z,53.90
2019-05-05T16:48:04.964Z,53.60
2019-05-05T16:50:36.697Z,53.70
2019-05-05T16:53:06.335Z,54.00
2019-05-05T16:55:44.864Z,54.30
2019-05-05T16:58:14.436Z,54.40
2019-05-05T17:00:44.101Z,54.60
2019-05-05T17:03:13.628Z,54.90
2019-05-05T17:05:46.419Z,55.50
2019-05-05T17:08:14.065Z,56.80
2019-05-05T17:10:43.626Z,57.80
2019-05-05T17:13:17.063Z,58.40
2019-05-05T17:15:50.745Z,59.20
2019-05-05T17:18:33.607Z,59.60
2019-05-05T17:21:05.492Z,59.90
2019-05-05T17:23:34.715Z,59.80
2019-05-05T17:26:03.896Z,60.00
2019-05-05T17:28:33.525Z,60.00
2019-05-05T17:31:02.787Z,60.00
2019-05-05T17:33:33.764Z,60.00
2019-05-05T17:36:04.620Z,60.20
2019-05-05T17:38:34.292Z,60.20
2019-05-05T17:41:05.313Z,60.20
2019-05-05T17:43:51.186Z,60.10
2019-05-05T17:46:24.916Z,60.10
2019-05-05T17:48:58.512Z,60.00
2019-05-05T17:51:35.194Z,60.20
2019-05-05T17:54:08.786Z,60.50
2019-05-05T17:56:38.013Z,60.60
2019-05-05T17:59:07.208Z,61.00
2019-05-05T18:01:36.457Z,61.50
2019-05-05T18:04:05.680Z,61.90
2019-05-05T18:06:44.021Z,62.40
2019-05-05T18:09:15.138Z,62.70
2019-05-05T18:11:53.470Z,62.80
2019-05-05T18:14:33.539Z,62.90
2019-05-05T18:17:04.225Z,62.90
2019-05-05T18:19:34.017Z,62.80
2019-05-05T18:22:03.340Z,62.30
2019-05-05T18:24:33.744Z,61.90
2019-05-05T18:27:04.551Z,62.20
2019-05-05T18:29:34.067Z,62.30
2019-05-05T18:32:04.340Z,62.40
2019-05-05T18:34:33.764Z,62.40
2019-05-05T18:37:03.776Z,62.40
2019-05-05T18:39:34.313Z,62.50
2019-05-05T18:42:04.627Z,62.60
2019-05-05T18:44:38.277Z,62.20
2019-05-05T18:47:18.755Z,62.10
2019-05-05T18:49:47.495Z,62.40
2019-05-05T18:52:16.749Z,62.10
2019-05-05T18:54:45.990Z,62.90
2019-05-05T18:57:15.373Z,62.60
2019-05-05T18:59:44.907Z,62.90
2019-05-05T19:02:21.243Z,62.90
2019-05-05T19:05:08.387Z,63.00
2019-05-05T19:07:39.211Z,63.10
2019-05-05T19:10:09.362Z,63.30
2019-05-05T19:12:38.708Z,63.40
2019-05-05T19:15:08.387Z,63.60
2019-05-05T19:17:37.617Z,63.80
2019-05-05T19:20:29.034Z,64.00
2019-05-05T19:23:05.064Z,64.00
2019-05-05T19:25:35.510Z,64.00
2019-05-05T19:28:04.732Z,64.10
2019-05-05T19:30:36.159Z,64.10
2019-05-05T19:33:05.445Z,64.00
2019-05-05T19:35:41.903Z,64.00
2019-05-05T19:38:05.550Z,64.00
2019-05-05T19:40:34.748Z,64.00
2019-05-05T19:43:04.797Z,64.20
2019-05-05T19:45:34.592Z,64.30
2019-05-05T19:48:05.990Z,64.60
2019-05-05T19:50:36.510Z,64.70
2019-05-05T19:53:07.419Z,64.80
2019-05-05T19:55:36.715Z,65.00
2019-05-05T19:58:05.885Z,65.20
2019-05-05T20:00:38.313Z,65.40
2019-05-05T20:03:06.269Z,65.50
2019-05-05T20:05:35.489Z,65.60
2019-05-05T20:08:04.655Z,65.80
2019-05-05T20:10:34.034Z,66.00
2019-05-05T20:13:05.023Z,66.10
2019-05-05T20:15:36.045Z,66.30
2019-05-05T20:18:05.238Z,66.40
2019-05-05T20:20:34.449Z,66.50
2019-05-05T20:23:04.225Z,66.70
2019-05-05T20:25:34.031Z,66.70
2019-05-05T20:28:03.914Z,66.70
2019-05-05T20:30:34.260Z,66.90
2019-05-05T20:33:05.204Z,67.00
2019-05-05T20:35:53.865Z,67.00
2019-05-05T20:38:27.784Z,67.10
2019-05-05T20:41:07.545Z,67.10
2019-05-05T20:43:36.829Z,67.30
2019-05-05T20:46:06.013Z,67.30
2019-05-05T20:48:35.260Z,67.40
2019-05-05T20:51:04.901Z,67.60
2019-05-05T20:53:34.491Z,67.70
2019-05-05T20:56:04.430Z,67.60
2019-05-05T20:58:33.827Z,67.50
2019-05-05T21:01:04.501Z,67.50
2019-05-05T21:03:34.631Z,67.70
2019-05-05T21:06:04.602Z,67.70
2019-05-05T21:08:34.873Z,67.70
2019-05-05T21:11:04.659Z,67.70
2019-05-05T21:13:34.342Z,67.70
2019-05-05T21:16:03.645Z,67.80
2019-05-05T21:18:34.714Z,67.80
2019-05-05T21:21:05.410Z,67.90
2019-05-05T21:23:36.246Z,68.10
2019-05-05T21:26:07.054Z,68.90
2019-05-05T21:28:36.350Z,68.30
2019-05-05T21:31:05.490Z,68.40
2019-05-05T21:33:35.854Z,68.40
2019-05-05T21:36:05.112Z,68.40
2019-05-05T21:38:35.604Z,68.40
2019-05-05T21:41:05.004Z,68.60
2019-05-05T21:43:34.276Z,68.70
2019-05-05T21:46:04.473Z,68.70
2019-05-05T21:48:34.120Z,68.90
2019-05-05T21:51:14.295Z,68.90
2019-05-05T21:53:47.919Z,68.90
2019-05-05T21:56:36.639Z,68.80
2019-05-05T21:59:06.264Z,69.00
2019-05-05T22:01:39.845Z,69.10
2019-05-05T22:04:06.509Z,69.20
2019-05-05T22:06:35.712Z,69.20
2019-05-05T22:09:06.992Z,69.30
2019-05-05T22:11:36.277Z,69.40
2019-05-05T22:14:05.538Z,69.50
2019-05-05T22:16:35.588Z,69.70
2019-05-05T22:19:06.133Z,69.80
2019-05-05T22:21:36.973Z,69.90
2019-05-05T22:24:16.107Z,70.00
2019-05-05T22:26:45.587Z,70.10
2019-05-05T22:29:17.040Z,70.10
2019-05-05T22:31:45.806Z,70.20
2019-05-05T22:34:14.963Z,70.20
2019-05-05T22:36:44.814Z,70.30
2019-05-05T22:39:16.661Z,70.40
2019-05-05T22:41:45.220Z,70.40
2019-05-05T22:44:14.397Z,70.50
2019-05-05T22:46:43.563Z,70.60
2019-05-05T22:49:14.753Z,70.70
2019-05-05T22:51:44.700Z,70.70
2019-05-05T22:54:14.904Z,70.80
2019-05-05T22:56:44.907Z,70.80
2019-05-05T22:59:14.171Z,70.90
2019-05-05T23:01:43.316Z,70.80
2019-05-05T23:04:23.997Z,70.90
2019-05-05T23:06:57.926Z,71.00
2019-05-05T23:09:27.213Z,70.90
2019-05-05T23:11:56.387Z,71.00
2019-05-05T23:14:28.687Z,71.20
2019-05-05T23:17:16.935Z,71.30
2019-05-05T23:20:04.838Z,71.30
2019-05-05T23:22:35.896Z,71.20
2019-05-05T23:25:10.799Z,71.20
2019-05-05T23:27:50.426Z,71.40
2019-05-05T23:30:23.884Z,71.50
2019-05-05T23:32:54.601Z,71.60
2019-05-05T23:35:24.078Z,71.60
2019-05-05T23:37:55.287Z,71.70
2019-05-05T23:40:25.758Z,71.70
2019-05-05T23:42:54.397Z,71.70
2019-05-05T23:45:24.897Z,71.50
2019-05-05T23:47:54.523Z,71.20
2019-05-05T23:50:24.317Z,71.10
2019-05-05T23:52:54.445Z,70.90
2019-05-05T23:55:24.260Z,71.20
2019-05-05T23:57:54.796Z,71.30
